sensor_id;sensor_type;location;lat;lon;timestamp;P1;durP1;ratioP1;P2;durP2;ratioP2
53775;SDS011;44276;49.534;6.378;2023-05-07T00:00:16;9.73;;;5.35;;
53775;SDS011;44276;49.534;6.378;2023-05-07T00:02:46;8.75;;;6.07;;
53775;SDS011;44276;49.534;6.378;2023-05-07T00:05:14;13.48;;;5.80;;
53775;SDS011;44276;49.534;6.378;2023-05-07T00:07:46;7.90;;;6.10;;
53775;SDS011;44276;49.534;6.378;2023-05-07T00:10:14;9.98;;;6.43;;
53775;SDS011;44276;49.534;6.378;2023-05-07T00:12:42;9.98;;;6.05;;
53775;SDS011;44276;49.534;6.378;2023-05-07T00:15:10;9.75;;;6.18;;
53775;SDS011;44276;49.534;6.378;2023-05-07T00:17:39;12.07;;;6.40;;
53775;SDS011;44276;49.534;6.378;2023-05-07T00:20:07;9.80;;;6.15;;
53775;SDS011;44276;49.534;6.378;2023-05-07T00:22:36;8.65;;;5.75;;
53775;SDS011;44276;49.534;6.378;2023-05-07T00:25:07;9.65;;;6.03;;
53775;SDS011;44276;49.534;6.378;2023-05-07T00:27:36;16.42;;;7.47;;
53775;SDS011;44276;49.534;6.378;2023-05-07T00:30:05;9.45;;;6.20;;
53775;SDS011;44276;49.534;6.378;2023-05-07T00:32:34;13.07;;;7.07;;
53775;SDS011;44276;49.534;6.378;2023-05-07T00:35:03;12.32;;;7.50;;
53775;SDS011;44276;49.534;6.378;2023-05-07T00:37:32;12.10;;;6.80;;
53775;SDS011;44276;49.534;6.378;2023-05-07T00:40:01;12.00;;;7.20;;
53775;SDS011;44276;49.534;6.378;2023-05-07T00:42:32;16.50;;;9.10;;
53775;SDS011;44276;49.534;6.378;2023-05-07T00:45:00;14.98;;;8.07;;
53775;SDS011;44276;49.534;6.378;2023-05-07T00:47:29;17.08;;;8.80;;
53775;SDS011;44276;49.534;6.378;2023-05-07T00:49:58;14.30;;;9.48;;
53775;SDS011;44276;49.534;6.378;2023-05-07T00:52:26;14.68;;;8.13;;
53775;SDS011;44276;49.534;6.378;2023-05-07T00:54:57;14.02;;;9.20;;
53775;SDS011;44276;49.534;6.378;2023-05-07T00:57:28;15.80;;;9.60;;
53775;SDS011;44276;49.534;6.378;2023-05-07T00:59:57;16.15;;;9.45;;
53775;SDS011;44276;49.534;6.378;2023-05-07T01:02:26;21.05;;;10.45;;
53775;SDS011;44276;49.534;6.378;2023-05-07T01:04:54;18.63;;;10.05;;
53775;SDS011;44276;49.534;6.378;2023-05-07T01:07:23;18.05;;;10.82;;
53775;SDS011;44276;49.534;6.378;2023-05-07T01:09:51;16.92;;;10.43;;
53775;SDS011;44276;49.534;6.378;2023-05-07T01:12:20;19.15;;;10.95;;
53775;SDS011;44276;49.534;6.378;2023-05-07T01:14:49;17.00;;;9.73;;
53775;SDS011;44276;49.534;6.378;2023-05-07T01:17:19;17.02;;;10.60;;
53775;SDS011;44276;49.534;6.378;2023-05-07T01:19:47;17.52;;;10.38;;
53775;SDS011;44276;49.534;6.378;2023-05-07T01:22:16;27.88;;;13.45;;
53775;SDS011;44276;49.534;6.378;2023-05-07T01:24:56;17.70;;;10.65;;
53775;SDS011;44276;49.534;6.378;2023-05-07T01:27:25;15.73;;;9.52;;
53775;SDS011;44276;49.534;6.378;2023-05-07T01:29:53;27.02;;;13.32;;
53775;SDS011;44276;49.534;6.378;2023-05-07T01:32:23;20.42;;;10.68;;
53775;SDS011;44276;49.534;6.378;2023-05-07T01:34:58;18.90;;;9.93;;
53775;SDS011;44276;49.534;6.378;2023-05-07T01:37:29;20.80;;;11.10;;
53775;SDS011;44276;49.534;6.378;2023-05-07T01:39:58;20.10;;;10.40;;
53775;SDS011;44276;49.534;6.378;2023-05-07T01:42:28;27.58;;;11.57;;
53775;SDS011;44276;49.534;6.378;2023-05-07T01:44:56;18.67;;;10.23;;
53775;SDS011;44276;49.534;6.378;2023-05-07T01:47:25;27.08;;;11.70;;
53775;SDS011;44276;49.534;6.378;2023-05-07T01:49:54;23.25;;;13.63;;
53775;SDS011;44276;49.534;6.378;2023-05-07T01:52:23;23.38;;;12.98;;
53775;SDS011;44276;49.534;6.378;2023-05-07T01:54:53;22.25;;;12.80;;
53775;SDS011;44276;49.534;6.378;2023-05-07T01:57:21;23.63;;;14.15;;
53775;SDS011;44276;49.534;6.378;2023-05-07T01:59:49;22.08;;;12.48;;
53775;SDS011;44276;49.534;6.378;2023-05-07T02:02:17;24.95;;;13.73;;
53775;SDS011;44276;49.534;6.378;2023-05-07T02:04:45;26.50;;;14.18;;
53775;SDS011;44276;49.534;6.378;2023-05-07T02:07:13;22.55;;;12.52;;
53775;SDS011;44276;49.534;6.378;2023-05-07T02:09:41;23.42;;;11.90;;
53775;SDS011;44276;49.534;6.378;2023-05-07T02:12:11;20.65;;;11.63;;
53775;SDS011;44276;49.534;6.378;2023-05-07T02:14:39;17.27;;;10.63;;
53775;SDS011;44276;49.534;6.378;2023-05-07T02:17:07;25.23;;;12.90;;
53775;SDS011;44276;49.534;6.378;2023-05-07T02:19:35;23.70;;;12.80;;
53775;SDS011;44276;49.534;6.378;2023-05-07T02:22:03;25.23;;;12.70;;
53775;SDS011;44276;49.534;6.378;2023-05-07T02:24:31;28.63;;;13.05;;
53775;SDS011;44276;49.534;6.378;2023-05-07T02:26:59;23.90;;;13.10;;
53775;SDS011;44276;49.534;6.378;2023-05-07T02:29:29;22.63;;;13.13;;
53775;SDS011;44276;49.534;6.378;2023-05-07T02:31:57;19.45;;;11.70;;
53775;SDS011;44276;49.534;6.378;2023-05-07T02:34:26;18.05;;;9.95;;
53775;SDS011;44276;49.534;6.378;2023-05-07T02:36:54;22.73;;;11.02;;
53775;SDS011;44276;49.534;6.378;2023-05-07T02:39:22;20.17;;;11.00;;
53775;SDS011;44276;49.534;6.378;2023-05-07T02:41:51;15.55;;;9.77;;
53775;SDS011;44276;49.534;6.378;2023-05-07T02:44:19;22.63;;;13.50;;
53775;SDS011;44276;49.534;6.378;2023-05-07T02:46:48;20.70;;;11.85;;
53775;SDS011;44276;49.534;6.378;2023-05-07T02:49:16;22.92;;;13.77;;
53775;SDS011;44276;49.534;6.378;2023-05-07T02:51:44;19.63;;;11.55;;
53775;SDS011;44276;49.534;6.378;2023-05-07T02:54:13;22.55;;;13.52;;
53775;SDS011;44276;49.534;6.378;2023-05-07T02:56:41;22.80;;;12.70;;
53775;SDS011;44276;49.534;6.378;2023-05-07T02:59:09;25.58;;;14.57;;
53775;SDS011;44276;49.534;6.378;2023-05-07T03:01:37;31.65;;;14.05;;
53775;SDS011;44276;49.534;6.378;2023-05-07T03:04:06;28.08;;;14.55;;
53775;SDS011;44276;49.534;6.378;2023-05-07T03:06:36;31.30;;;15.75;;
53775;SDS011;44276;49.534;6.378;2023-05-07T03:09:04;33.50;;;15.65;;
53775;SDS011;44276;49.534;6.378;2023-05-07T03:11:33;23.02;;;14.02;;
53775;SDS011;44276;49.534;6.378;2023-05-07T03:14:01;28.42;;;15.35;;
53775;SDS011;44276;49.534;6.378;2023-05-07T03:16:32;29.00;;;14.50;;
53775;SDS011;44276;49.534;6.378;2023-05-07T03:19:00;31.25;;;15.43;;
53775;SDS011;44276;49.534;6.378;2023-05-07T03:21:30;25.45;;;14.57;;
53775;SDS011;44276;49.534;6.378;2023-05-07T03:23:59;22.70;;;14.10;;
53775;SDS011;44276;49.534;6.378;2023-05-07T03:26:28;20.98;;;11.68;;
53775;SDS011;44276;49.534;6.378;2023-05-07T03:28:56;23.90;;;12.68;;
53775;SDS011;44276;49.534;6.378;2023-05-07T03:31:24;25.17;;;13.07;;
53775;SDS011;44276;49.534;6.378;2023-05-07T03:33:53;27.20;;;12.95;;
53775;SDS011;44276;49.534;6.378;2023-05-07T03:36:23;28.20;;;13.57;;
53775;SDS011;44276;49.534;6.378;2023-05-07T03:38:54;33.88;;;14.63;;
53775;SDS011;44276;49.534;6.378;2023-05-07T03:41:22;26.80;;;14.05;;
53775;SDS011;44276;49.534;6.378;2023-05-07T03:43:50;22.92;;;12.65;;
53775;SDS011;44276;49.534;6.378;2023-05-07T03:46:18;29.55;;;14.77;;
53775;SDS011;44276;49.534;6.378;2023-05-07T03:48:46;27.17;;;14.82;;
53775;SDS011;44276;49.534;6.378;2023-05-07T03:51:14;28.17;;;15.27;;
53775;SDS011;44276;49.534;6.378;2023-05-07T03:53:43;27.90;;;13.85;;
53775;SDS011;44276;49.534;6.378;2023-05-07T03:56:12;29.65;;;15.30;;
53775;SDS011;44276;49.534;6.378;2023-05-07T03:58:42;28.27;;;15.85;;
53775;SDS011;44276;49.534;6.378;2023-05-07T04:01:11;34.05;;;16.38;;
53775;SDS011;44276;49.534;6.378;2023-05-07T04:03:39;25.98;;;15.88;;
53775;SDS011;44276;49.534;6.378;2023-05-07T04:06:07;29.05;;;14.90;;
53775;SDS011;44276;49.534;6.378;2023-05-07T04:08:35;30.30;;;14.93;;
53775;SDS011;44276;49.534;6.378;2023-05-07T04:11:04;27.75;;;15.65;;
53775;SDS011;44276;49.534;6.378;2023-05-07T04:13:33;41.70;;;18.42;;
53775;SDS011;44276;49.534;6.378;2023-05-07T04:16:02;30.95;;;16.83;;
53775;SDS011;44276;49.534;6.378;2023-05-07T04:18:32;32.95;;;15.77;;
53775;SDS011;44276;49.534;6.378;2023-05-07T04:21:00;35.42;;;18.35;;
53775;SDS011;44276;49.534;6.378;2023-05-07T04:23:28;27.88;;;14.70;;
53775;SDS011;44276;49.534;6.378;2023-05-07T04:25:56;36.03;;;16.83;;
53775;SDS011;44276;49.534;6.378;2023-05-07T04:28:25;26.52;;;14.43;;
53775;SDS011;44276;49.534;6.378;2023-05-07T04:30:54;30.02;;;15.65;;
53775;SDS011;44276;49.534;6.378;2023-05-07T04:33:22;23.65;;;13.88;;
53775;SDS011;44276;49.534;6.378;2023-05-07T04:35:50;26.30;;;15.30;;
53775;SDS011;44276;49.534;6.378;2023-05-07T04:38:18;27.13;;;14.30;;
53775;SDS011;44276;49.534;6.378;2023-05-07T04:40:47;29.52;;;15.30;;
53775;SDS011;44276;49.534;6.378;2023-05-07T04:43:15;24.60;;;14.82;;
53775;SDS011;44276;49.534;6.378;2023-05-07T04:45:43;29.35;;;15.00;;
53775;SDS011;44276;49.534;6.378;2023-05-07T04:48:12;23.92;;;14.55;;
53775;SDS011;44276;49.534;6.378;2023-05-07T04:50:42;26.20;;;13.63;;
53775;SDS011;44276;49.534;6.378;2023-05-07T04:53:10;25.38;;;13.60;;
53775;SDS011;44276;49.534;6.378;2023-05-07T04:55:38;22.90;;;13.82;;
53775;SDS011;44276;49.534;6.378;2023-05-07T04:58:07;23.58;;;13.27;;
53775;SDS011;44276;49.534;6.378;2023-05-07T05:00:35;21.77;;;12.60;;
53775;SDS011;44276;49.534;6.378;2023-05-07T05:03:05;19.98;;;12.15;;
53775;SDS011;44276;49.534;6.378;2023-05-07T05:05:35;17.40;;;11.70;;
53775;SDS011;44276;49.534;6.378;2023-05-07T05:08:04;25.60;;;12.55;;
53775;SDS011;44276;49.534;6.378;2023-05-07T05:10:32;19.73;;;10.90;;
53775;SDS011;44276;49.534;6.378;2023-05-07T05:13:00;16.48;;;10.13;;
53775;SDS011;44276;49.534;6.378;2023-05-07T05:15:28;17.17;;;9.75;;
53775;SDS011;44276;49.534;6.378;2023-05-07T05:17:59;14.80;;;9.20;;
53775;SDS011;44276;49.534;6.378;2023-05-07T05:20:27;16.00;;;9.00;;
53775;SDS011;44276;49.534;6.378;2023-05-07T05:22:57;12.88;;;7.32;;
53775;SDS011;44276;49.534;6.378;2023-05-07T05:25:25;8.80;;;7.10;;
53775;SDS011;44276;49.534;6.378;2023-05-07T05:27:53;14.07;;;6.90;;
53775;SDS011;44276;49.534;6.378;2023-05-07T05:30:23;9.77;;;6.93;;
53775;SDS011;44276;49.534;6.378;2023-05-07T05:32:51;6.63;;;5.90;;
53775;SDS011;44276;49.534;6.378;2023-05-07T05:35:19;8.48;;;4.95;;
53775;SDS011;44276;49.534;6.378;2023-05-07T05:37:47;6.18;;;4.85;;
53775;SDS011;44276;49.534;6.378;2023-05-07T05:40:17;8.27;;;5.90;;
53775;SDS011;44276;49.534;6.378;2023-05-07T05:42:45;4.65;;;4.03;;
53775;SDS011;44276;49.534;6.378;2023-05-07T05:45:13;6.15;;;3.65;;
53775;SDS011;44276;49.534;6.378;2023-05-07T05:47:41;8.65;;;3.78;;
53775;SDS011;44276;49.534;6.378;2023-05-07T05:50:09;6.15;;;3.90;;
53775;SDS011;44276;49.534;6.378;2023-05-07T05:52:40;4.70;;;3.70;;
53775;SDS011;44276;49.534;6.378;2023-05-07T05:55:08;5.45;;;3.55;;
53775;SDS011;44276;49.534;6.378;2023-05-07T05:57:38;3.60;;;2.78;;
53775;SDS011;44276;49.534;6.378;2023-05-07T06:00:07;6.85;;;3.15;;
53775;SDS011;44276;49.534;6.378;2023-05-07T06:02:40;4.03;;;2.47;;
53775;SDS011;44276;49.534;6.378;2023-05-07T06:05:09;5.72;;;2.90;;
53775;SDS011;44276;49.534;6.378;2023-05-07T06:07:37;4.28;;;2.67;;
53775;SDS011;44276;49.534;6.378;2023-05-07T06:10:06;5.07;;;2.78;;
53775;SDS011;44276;49.534;6.378;2023-05-07T06:12:35;3.13;;;2.25;;
53775;SDS011;44276;49.534;6.378;2023-05-07T06:15:06;3.10;;;2.42;;
53775;SDS011;44276;49.534;6.378;2023-05-07T06:17:34;3.30;;;2.17;;
53775;SDS011;44276;49.534;6.378;2023-05-07T06:20:03;4.32;;;2.70;;
53775;SDS011;44276;49.534;6.378;2023-05-07T06:22:33;4.32;;;2.75;;
53775;SDS011;44276;49.534;6.378;2023-05-07T06:25:01;2.15;;;1.83;;
53775;SDS011;44276;49.534;6.378;2023-05-07T06:27:29;5.20;;;2.47;;
53775;SDS011;44276;49.534;6.378;2023-05-07T06:29:57;4.00;;;2.08;;
53775;SDS011;44276;49.534;6.378;2023-05-07T06:32:27;2.33;;;2.08;;
53775;SDS011;44276;49.534;6.378;2023-05-07T06:34:55;2.75;;;2.22;;
53775;SDS011;44276;49.534;6.378;2023-05-07T06:37:23;3.88;;;2.05;;
53775;SDS011;44276;49.534;6.378;2023-05-07T06:39:52;4.82;;;2.17;;
53775;SDS011;44276;49.534;6.378;2023-05-07T06:42:22;2.35;;;1.80;;
53775;SDS011;44276;49.534;6.378;2023-05-07T06:44:50;3.88;;;1.60;;
53775;SDS011;44276;49.534;6.378;2023-05-07T06:47:18;2.70;;;1.80;;
53775;SDS011;44276;49.534;6.378;2023-05-07T06:49:48;2.13;;;1.55;;
53775;SDS011;44276;49.534;6.378;2023-05-07T06:52:16;2.05;;;1.45;;
53775;SDS011;44276;49.534;6.378;2023-05-07T06:54:44;3.42;;;1.67;;
53775;SDS011;44276;49.534;6.378;2023-05-07T06:57:12;2.13;;;1.27;;
53775;SDS011;44276;49.534;6.378;2023-05-07T06:59:40;4.35;;;1.50;;
53775;SDS011;44276;49.534;6.378;2023-05-07T07:02:08;2.05;;;1.83;;
53775;SDS011;44276;49.534;6.378;2023-05-07T07:04:36;2.00;;;1.80;;
53775;SDS011;44276;49.534;6.378;2023-05-07T07:07:06;3.33;;;2.20;;
53775;SDS011;44276;49.534;6.378;2023-05-07T07:09:34;3.05;;;2.75;;
53775;SDS011;44276;49.534;6.378;2023-05-07T07:12:02;4.32;;;1.63;;
53775;SDS011;44276;49.534;6.378;2023-05-07T07:14:31;2.83;;;1.58;;
53775;SDS011;44276;49.534;6.378;2023-05-07T07:16:59;2.90;;;1.70;;
53775;SDS011;44276;49.534;6.378;2023-05-07T07:19:28;2.17;;;1.90;;
53775;SDS011;44276;49.534;6.378;2023-05-07T07:21:56;2.88;;;1.25;;
53775;SDS011;44276;49.534;6.378;2023-05-07T07:24:25;2.67;;;1.75;;
53775;SDS011;44276;49.534;6.378;2023-05-07T07:26:53;2.00;;;1.20;;
53775;SDS011;44276;49.534;6.378;2023-05-07T07:29:21;2.50;;;1.75;;
53775;SDS011;44276;49.534;6.378;2023-05-07T07:31:51;1.98;;;1.40;;
53775;SDS011;44276;49.534;6.378;2023-05-07T07:34:20;1.95;;;1.20;;
53775;SDS011;44276;49.534;6.378;2023-05-07T07:36:48;5.30;;;1.83;;
53775;SDS011;44276;49.534;6.378;2023-05-07T07:39:16;1.80;;;1.10;;
53775;SDS011;44276;49.534;6.378;2023-05-07T07:41:45;4.57;;;1.73;;
53775;SDS011;44276;49.534;6.378;2023-05-07T07:44:15;2.63;;;1.33;;
53775;SDS011;44276;49.534;6.378;2023-05-07T07:46:43;2.00;;;1.38;;
53775;SDS011;44276;49.534;6.378;2023-05-07T07:49:11;3.78;;;1.10;;
53775;SDS011;44276;49.534;6.378;2023-05-07T07:51:40;2.40;;;1.33;;
53775;SDS011;44276;49.534;6.378;2023-05-07T07:54:08;3.38;;;2.13;;
53775;SDS011;44276;49.534;6.378;2023-05-07T07:56:36;1.58;;;0.77;;
53775;SDS011;44276;49.534;6.378;2023-05-07T07:59:06;1.20;;;0.75;;
53775;SDS011;44276;49.534;6.378;2023-05-07T08:01:34;2.47;;;1.17;;
53775;SDS011;44276;49.534;6.378;2023-05-07T08:04:02;2.45;;;1.33;;
53775;SDS011;44276;49.534;6.378;2023-05-07T08:06:32;1.83;;;1.08;;
53775;SDS011;44276;49.534;6.378;2023-05-07T08:09:00;2.80;;;1.40;;
53775;SDS011;44276;49.534;6.378;2023-05-07T08:11:28;4.22;;;0.82;;
53775;SDS011;44276;49.534;6.378;2023-05-07T08:13:56;2.00;;;1.60;;
53775;SDS011;44276;49.534;6.378;2023-05-07T08:16:26;4.80;;;1.13;;
53775;SDS011;44276;49.534;6.378;2023-05-07T08:18:56;2.42;;;1.58;;
53775;SDS011;44276;49.534;6.378;2023-05-07T08:21:24;1.65;;;1.05;;
53775;SDS011;44276;49.534;6.378;2023-05-07T08:23:52;1.65;;;1.20;;
53775;SDS011;44276;49.534;6.378;2023-05-07T08:26:20;2.17;;;1.00;;
53775;SDS011;44276;49.534;6.378;2023-05-07T08:28:48;2.50;;;1.23;;
53775;SDS011;44276;49.534;6.378;2023-05-07T08:31:16;1.55;;;1.40;;
53775;SDS011;44276;49.534;6.378;2023-05-07T08:33:46;4.35;;;1.40;;
53775;SDS011;44276;49.534;6.378;2023-05-07T08:36:14;2.83;;;1.38;;
53775;SDS011;44276;49.534;6.378;2023-05-07T08:38:42;1.15;;;1.00;;
53775;SDS011;44276;49.534;6.378;2023-05-07T08:41:11;1.75;;;0.70;;
53775;SDS011;44276;49.534;6.378;2023-05-07T08:43:40;1.88;;;1.30;;
53775;SDS011;44276;49.534;6.378;2023-05-07T08:46:13;2.35;;;0.90;;
53775;SDS011;44276;49.534;6.378;2023-05-07T08:48:49;1.95;;;0.85;;
53775;SDS011;44276;49.534;6.378;2023-05-07T08:51:19;2.63;;;0.75;;
53775;SDS011;44276;49.534;6.378;2023-05-07T08:53:49;2.03;;;1.23;;
53775;SDS011;44276;49.534;6.378;2023-05-07T08:56:17;3.00;;;1.10;;
53775;SDS011;44276;49.534;6.378;2023-05-07T08:58:48;2.60;;;1.17;;
53775;SDS011;44276;49.534;6.378;2023-05-07T09:01:16;2.47;;;0.90;;
53775;SDS011;44276;49.534;6.378;2023-05-07T09:03:45;1.77;;;1.15;;
53775;SDS011;44276;49.534;6.378;2023-05-07T09:06:16;3.83;;;1.15;;
53775;SDS011;44276;49.534;6.378;2023-05-07T09:08:48;5.00;;;1.52;;
53775;SDS011;44276;49.534;6.378;2023-05-07T09:11:19;1.45;;;0.90;;
53775;SDS011;44276;49.534;6.378;2023-05-07T09:13:50;1.58;;;0.98;;
53775;SDS011;44276;49.534;6.378;2023-05-07T09:16:23;2.38;;;1.35;;
53775;SDS011;44276;49.534;6.378;2023-05-07T09:18:53;2.28;;;1.55;;
53775;SDS011;44276;49.534;6.378;2023-05-07T09:21:23;4.07;;;1.40;;
53775;SDS011;44276;49.534;6.378;2023-05-07T09:23:52;1.13;;;0.75;;
53775;SDS011;44276;49.534;6.378;2023-05-07T09:26:22;3.72;;;0.80;;
53775;SDS011;44276;49.534;6.378;2023-05-07T09:28:51;1.48;;;0.90;;
53775;SDS011;44276;49.534;6.378;2023-05-07T09:31:19;2.85;;;0.98;;
53775;SDS011;44276;49.534;6.378;2023-05-07T09:33:52;3.88;;;1.40;;
53775;SDS011;44276;49.534;6.378;2023-05-07T09:36:23;2.33;;;1.20;;
53775;SDS011;44276;49.534;6.378;2023-05-07T09:38:51;2.83;;;1.52;;
53775;SDS011;44276;49.534;6.378;2023-05-07T09:41:19;3.17;;;1.35;;
53775;SDS011;44276;49.534;6.378;2023-05-07T09:43:48;1.83;;;0.82;;
53775;SDS011;44276;49.534;6.378;2023-05-07T09:46:24;4.30;;;1.45;;
53775;SDS011;44276;49.534;6.378;2023-05-07T09:48:57;1.95;;;1.27;;
53775;SDS011;44276;49.534;6.378;2023-05-07T09:51:30;1.48;;;0.75;;
53775;SDS011;44276;49.534;6.378;2023-05-07T09:54:05;1.40;;;0.98;;
53775;SDS011;44276;49.534;6.378;2023-05-07T09:56:34;1.90;;;1.13;;
53775;SDS011;44276;49.534;6.378;2023-05-07T09:59:04;2.20;;;0.90;;
53775;SDS011;44276;49.534;6.378;2023-05-07T10:01:35;4.03;;;1.00;;
53775;SDS011;44276;49.534;6.378;2023-05-07T10:04:05;1.52;;;1.00;;
53775;SDS011;44276;49.534;6.378;2023-05-07T10:06:36;1.65;;;1.25;;
53775;SDS011;44276;49.534;6.378;2023-05-07T10:09:05;2.03;;;1.77;;
53775;SDS011;44276;49.534;6.378;2023-05-07T10:11:33;1.95;;;1.15;;
53775;SDS011;44276;49.534;6.378;2023-05-07T10:14:04;3.15;;;1.00;;
53775;SDS011;44276;49.534;6.378;2023-05-07T10:16:33;2.13;;;1.25;;
53775;SDS011;44276;49.534;6.378;2023-05-07T10:19:04;2.80;;;0.68;;
53775;SDS011;44276;49.534;6.378;2023-05-07T10:21:37;2.47;;;0.95;;
53775;SDS011;44276;49.534;6.378;2023-05-07T10:24:13;2.53;;;1.02;;
53775;SDS011;44276;49.534;6.378;2023-05-07T10:26:52;1.48;;;0.70;;
53775;SDS011;44276;49.534;6.378;2023-05-07T10:29:25;2.42;;;1.00;;
53775;SDS011;44276;49.534;6.378;2023-05-07T10:32:08;3.40;;;1.27;;
53775;SDS011;44276;49.534;6.378;2023-05-07T10:34:58;1.60;;;1.35;;
53775;SDS011;44276;49.534;6.378;2023-05-07T10:37:33;1.80;;;0.85;;
53775;SDS011;44276;49.534;6.378;2023-05-07T10:40:02;1.13;;;0.82;;
53775;SDS011;44276;49.534;6.378;2023-05-07T10:42:33;1.35;;;1.20;;
53775;SDS011;44276;49.534;6.378;2023-05-07T10:45:13;2.00;;;0.85;;
53775;SDS011;44276;49.534;6.378;2023-05-07T10:51:15;2.03;;;1.23;;
53775;SDS011;44276;49.534;6.378;2023-05-07T10:53:48;2.55;;;1.23;;
53775;SDS011;44276;49.534;6.378;2023-05-07T10:56:47;2.72;;;1.60;;
53775;SDS011;44276;49.534;6.378;2023-05-07T10:59:35;1.20;;;1.00;;
53775;SDS011;44276;49.534;6.378;2023-05-07T11:02:09;2.58;;;0.93;;
53775;SDS011;44276;49.534;6.378;2023-05-07T11:04:40;1.75;;;1.20;;
53775;SDS011;44276;49.534;6.378;2023-05-07T11:07:24;3.25;;;1.10;;
53775;SDS011;44276;49.534;6.378;2023-05-07T11:09:59;2.80;;;1.20;;
53775;SDS011;44276;49.534;6.378;2023-05-07T11:12:47;3.95;;;1.45;;
53775;SDS011;44276;49.534;6.378;2023-05-07T11:18:11;2.42;;;1.48;;
53775;SDS011;44276;49.534;6.378;2023-05-07T11:20:44;1.23;;;0.80;;
53775;SDS011;44276;49.534;6.378;2023-05-07T11:26:29;2.00;;;1.20;;
53775;SDS011;44276;49.534;6.378;2023-05-07T11:29:10;3.60;;;1.33;;
53775;SDS011;44276;49.534;6.378;2023-05-07T11:31:39;3.30;;;1.70;;
53775;SDS011;44276;49.534;6.378;2023-05-07T11:34:08;3.25;;;1.10;;
53775;SDS011;44276;49.534;6.378;2023-05-07T11:36:41;5.72;;;1.48;;
53775;SDS011;44276;49.534;6.378;2023-05-07T11:39:24;1.30;;;1.20;;
53775;SDS011;44276;49.534;6.378;2023-05-07T11:41:57;2.58;;;1.63;;
53775;SDS011;44276;49.534;6.378;2023-05-07T11:44:39;3.05;;;1.50;;
53775;SDS011;44276;49.534;6.378;2023-05-07T11:47:10;1.70;;;1.25;;
53775;SDS011;44276;49.534;6.378;2023-05-07T11:49:38;3.90;;;1.52;;
53775;SDS011;44276;49.534;6.378;2023-05-07T11:52:06;3.03;;;1.27;;
53775;SDS011;44276;49.534;6.378;2023-05-07T11:54:35;1.63;;;1.17;;
53775;SDS011;44276;49.534;6.378;2023-05-07T11:57:06;1.70;;;1.23;;
53775;SDS011;44276;49.534;6.378;2023-05-07T11:59:38;3.00;;;1.50;;
53775;SDS011;44276;49.534;6.378;2023-05-07T12:02:07;2.08;;;1.40;;
53775;SDS011;44276;49.534;6.378;2023-05-07T12:04:37;4.15;;;1.90;;
53775;SDS011;44276;49.534;6.378;2023-05-07T12:07:06;2.00;;;1.50;;
53775;SDS011;44276;49.534;6.378;2023-05-07T12:09:39;1.27;;;1.10;;
53775;SDS011;44276;49.534;6.378;2023-05-07T12:12:09;2.72;;;1.42;;
53775;SDS011;44276;49.534;6.378;2023-05-07T12:14:39;2.28;;;1.30;;
53775;SDS011;44276;49.534;6.378;2023-05-07T12:17:08;2.03;;;1.42;;
53775;SDS011;44276;49.534;6.378;2023-05-07T12:19:39;1.95;;;1.45;;
53775;SDS011;44276;49.534;6.378;2023-05-07T12:22:10;1.67;;;1.13;;
53775;SDS011;44276;49.534;6.378;2023-05-07T12:24:43;1.95;;;1.10;;
53775;SDS011;44276;49.534;6.378;2023-05-07T12:27:14;3.35;;;0.98;;
53775;SDS011;44276;49.534;6.378;2023-05-07T12:29:44;3.75;;;1.23;;
53775;SDS011;44276;49.534;6.378;2023-05-07T12:32:15;1.75;;;1.33;;
53775;SDS011;44276;49.534;6.378;2023-05-07T12:34:44;1.45;;;1.17;;
53775;SDS011;44276;49.534;6.378;2023-05-07T12:37:13;1.67;;;1.48;;
53775;SDS011;44276;49.534;6.378;2023-05-07T12:39:47;2.00;;;1.80;;
53775;SDS011;44276;49.534;6.378;2023-05-07T12:42:19;3.20;;;1.13;;
53775;SDS011;44276;49.534;6.378;2023-05-07T12:44:50;2.47;;;1.30;;
53775;SDS011;44276;49.534;6.378;2023-05-07T12:47:18;4.25;;;1.92;;
53775;SDS011;44276;49.534;6.378;2023-05-07T12:49:48;6.35;;;1.77;;
53775;SDS011;44276;49.534;6.378;2023-05-07T12:52:16;1.73;;;1.52;;
53775;SDS011;44276;49.534;6.378;2023-05-07T12:54:44;3.55;;;2.25;;
53775;SDS011;44276;49.534;6.378;2023-05-07T12:57:12;2.15;;;1.95;;
53775;SDS011;44276;49.534;6.378;2023-05-07T12:59:41;2.67;;;1.67;;
53775;SDS011;44276;49.534;6.378;2023-05-07T13:02:10;4.20;;;1.92;;
53775;SDS011;44276;49.534;6.378;2023-05-07T13:04:39;2.70;;;1.52;;
53775;SDS011;44276;49.534;6.378;2023-05-07T13:07:07;2.55;;;1.65;;
53775;SDS011;44276;49.534;6.378;2023-05-07T13:09:35;6.25;;;1.70;;
53775;SDS011;44276;49.534;6.378;2023-05-07T13:12:04;2.50;;;1.50;;
53775;SDS011;44276;49.534;6.378;2023-05-07T13:14:33;4.90;;;1.70;;
53775;SDS011;44276;49.534;6.378;2023-05-07T13:17:02;2.60;;;1.73;;
53775;SDS011;44276;49.534;6.378;2023-05-07T13:19:30;2.30;;;1.65;;
53775;SDS011;44276;49.534;6.378;2023-05-07T13:21:58;5.30;;;2.63;;
53775;SDS011;44276;49.534;6.378;2023-05-07T13:24:26;2.75;;;1.42;;
53775;SDS011;44276;49.534;6.378;2023-05-07T13:26:54;2.90;;;1.75;;
53775;SDS011;44276;49.534;6.378;2023-05-07T13:29:22;2.72;;;2.00;;
53775;SDS011;44276;49.534;6.378;2023-05-07T13:31:54;3.88;;;1.67;;
53775;SDS011;44276;49.534;6.378;2023-05-07T13:34:24;5.25;;;2.28;;
53775;SDS011;44276;49.534;6.378;2023-05-07T13:36:53;3.55;;;1.70;;
53775;SDS011;44276;49.534;6.378;2023-05-07T13:39:21;2.78;;;1.55;;
53775;SDS011;44276;49.534;6.378;2023-05-07T13:41:49;5.57;;;1.55;;
53775;SDS011;44276;49.534;6.378;2023-05-07T13:44:17;4.80;;;2.30;;
53775;SDS011;44276;49.534;6.378;2023-05-07T13:46:45;8.63;;;1.90;;
53775;SDS011;44276;49.534;6.378;2023-05-07T13:49:14;3.47;;;1.50;;
53775;SDS011;44276;49.534;6.378;2023-05-07T13:51:43;2.92;;;2.00;;
53775;SDS011;44276;49.534;6.378;2023-05-07T13:54:11;4.40;;;2.00;;
53775;SDS011;44276;49.534;6.378;2023-05-07T13:56:39;2.85;;;1.98;;
53775;SDS011;44276;49.534;6.378;2023-05-07T13:59:07;2.95;;;1.73;;
53775;SDS011;44276;49.534;6.378;2023-05-07T14:01:35;3.45;;;2.35;;
53775;SDS011;44276;49.534;6.378;2023-05-07T14:04:04;2.97;;;2.10;;
53775;SDS011;44276;49.534;6.378;2023-05-07T14:06:32;4.78;;;2.10;;
53775;SDS011;44276;49.534;6.378;2023-05-07T14:09:01;2.58;;;1.52;;
53775;SDS011;44276;49.534;6.378;2023-05-07T14:11:30;1.85;;;1.60;;
53775;SDS011;44276;49.534;6.378;2023-05-07T14:14:01;3.72;;;1.55;;
53775;SDS011;44276;49.534;6.378;2023-05-07T14:16:29;3.25;;;2.03;;
53775;SDS011;44276;49.534;6.378;2023-05-07T14:18:57;3.47;;;2.22;;
53775;SDS011;44276;49.534;6.378;2023-05-07T14:21:25;6.13;;;1.90;;
53775;SDS011;44276;49.534;6.378;2023-05-07T14:23:53;4.38;;;1.80;;
53775;SDS011;44276;49.534;6.378;2023-05-07T14:26:24;4.78;;;2.05;;
53775;SDS011;44276;49.534;6.378;2023-05-07T14:28:53;3.63;;;1.77;;
53775;SDS011;44276;49.534;6.378;2023-05-07T14:31:23;6.05;;;1.88;;
53775;SDS011;44276;49.534;6.378;2023-05-07T14:33:52;4.20;;;1.88;;
53775;SDS011;44276;49.534;6.378;2023-05-07T14:36:20;4.18;;;2.40;;
53775;SDS011;44276;49.534;6.378;2023-05-07T14:38:50;2.90;;;2.53;;
53775;SDS011;44276;49.534;6.378;2023-05-07T14:41:21;4.72;;;2.83;;
53775;SDS011;44276;49.534;6.378;2023-05-07T14:43:51;6.55;;;2.90;;
53775;SDS011;44276;49.534;6.378;2023-05-07T14:46:19;2.42;;;2.22;;
53775;SDS011;44276;49.534;6.378;2023-05-07T14:48:47;6.20;;;3.03;;
53775;SDS011;44276;49.534;6.378;2023-05-07T14:51:15;3.03;;;2.30;;
53775;SDS011;44276;49.534;6.378;2023-05-07T14:53:43;2.38;;;2.10;;
53775;SDS011;44276;49.534;6.378;2023-05-07T14:56:12;6.38;;;2.53;;
53775;SDS011;44276;49.534;6.378;2023-05-07T14:58:41;4.80;;;2.90;;
53775;SDS011;44276;49.534;6.378;2023-05-07T15:01:09;3.63;;;2.72;;
53775;SDS011;44276;49.534;6.378;2023-05-07T15:03:38;6.35;;;3.22;;